Time;durP1;ratioP1;P1;durP2;ratioP2;P2;SDS_P1;SDS_P2;PMS_P1;PMS_P2;Temp;Humidity;BMP_temperature;BMP_pressure;BME280_temperature;BME280_humidity;BME280_pressure;Samples;Min_cycle;Max_cycle;Signal;HPM_P1;HPM_P2
2023/01/07 00:01:30;;;;;;;2.60;2.00;;;;;;;;;;5030805;28;20030;-80
2023/01/07 00:03:57;;;;;;;6.50;2.13;;;;;;;;;;5029731;28;20056;-78
2023/01/07 00:06:28;;;;;;;3.55;1.73;;;;;;;;;;5029417;28;20036;-79
2023/01/07 00:08:57;;;;;;;3.22;2.13;;;;;;;;;;5031020;28;20096;-79
2023/01/07 00:11:25;;;;;;;5.13;2.05;;;;;;;;;;5029572;28;20026;-80
2023/01/07 00:13:52;;;;;;;3.28;2.35;;;;;;;;;;5029181;28;20029;-79
2023/01/07 00:16:20;;;;;;;3.42;1.90;;;;;;;;;;5029182;28;20112;-79
2023/01/07 00:18:47;;;;;;;3.13;2.20;;;;;;;;;;5030316;28;20144;-80
2023/01/07 00:21:15;;;;;;;4.93;2.00;;;;;;;;;;5029456;28;20025;-79
2023/01/07 00:23:42;;;;;;;3.08;2.00;;;;;;;;;;5030681;28;20028;-79
2023/01/07 00:26:19;;;;;;;4.85;2.60;;;;;;;;;;5029640;28;20025;-79
2023/01/07 00:28:46;;;;;;;4.00;2.13;;;;;;;;;;5030727;28;20028;-80
2023/01/07 00:31:17;;;;;;;4.65;2.53;;;;;;;;;;5030169;28;20021;-80
2023/01/07 00:33:50;;;;;;;3.88;2.03;;;;;;;;;;5028725;28;20017;-79
2023/01/07 00:36:17;;;;;;;4.78;2.83;;;;;;;;;;5028535;28;20079;-79
2023/01/07 00:38:42;;;;;;;5.43;2.30;;;;;;;;;;5029099;28;20071;-79
2023/01/07 00:41:09;;;;;;;3.28;2.17;;;;;;;;;;5030335;28;20041;-78
2023/01/07 00:43:34;;;;;;;3.55;2.40;;;;;;;;;;5029240;28;20116;-80
2023/01/07 00:46:00;;;;;;;4.40;2.70;;;;;;;;;;5029038;28;20116;-79
2023/01/07 00:48:25;;;;;;;2.38;2.10;;;;;;;;;;5030718;28;20033;-79
2023/01/07 00:50:52;;;;;;;7.75;2.80;;;;;;;;;;5030159;28;20110;-79
2023/01/07 00:53:18;;;;;;;4.30;2.50;;;;;;;;;;5029137;28;20493;-80
2023/01/07 00:55:43;;;;;;;4.97;2.40;;;;;;;;;;5030046;28;20446;-80
2023/01/07 00:58:14;;;;;;;7.95;2.58;;;;;;;;;;5030508;28;20025;-80
2023/01/07 01:00:40;;;;;;;4.03;2.50;;;;;;;;;;5030326;28;20021;-80
2023/01/07 01:03:05;;;;;;;4.13;2.20;;;;;;;;;;5030615;28;20025;-80
2023/01/07 01:05:31;;;;;;;3.75;2.15;;;;;;;;;;5028758;28;20488;-80
2023/01/07 01:07:57;;;;;;;6.07;2.22;;;;;;;;;;5030103;28;20450;-80
2023/01/07 01:10:22;;;;;;;3.88;2.58;;;;;;;;;;5028738;28;20083;-80
2023/01/07 01:12:48;;;;;;;12.15;3.10;;;;;;;;;;5028652;28;20430;-80
2023/01/07 01:15:15;;;;;;;2.97;1.88;;;;;;;;;;5028930;28;20025;-80
2023/01/07 01:17:41;;;;;;;3.05;2.70;;;;;;;;;;5028813;28;20026;-80
2023/01/07 01:20:10;;;;;;;4.03;2.17;;;;;;;;;;5028679;28;20056;-80
2023/01/07 01:22:35;;;;;;;2.72;2.28;;;;;;;;;;5030004;28;20029;-80
2023/01/07 01:25:01;;;;;;;2.67;2.20;;;;;;;;;;5029992;28;20040;-80
2023/01/07 01:27:29;;;;;;;2.83;2.40;;;;;;;;;;5030584;28;20030;-80
2023/01/07 01:29:55;;;;;;;3.58;2.95;;;;;;;;;;5028792;28;20105;-80
2023/01/07 01:32:20;;;;;;;4.03;2.05;;;;;;;;;;5030471;28;20053;-80
2023/01/07 01:34:46;;;;;;;4.18;1.95;;;;;;;;;;5031858;28;20077;-80
2023/01/07 01:37:11;;;;;;;3.20;2.05;;;;;;;;;;5029072;28;20132;-79
2023/01/07 01:39:37;;;;;;;4.05;2.28;;;;;;;;;;5029875;28;20029;-79
2023/01/07 01:42:02;;;;;;;2.47;2.03;;;;;;;;;;5028012;28;20124;-79
2023/01/07 01:44:37;;;;;;;4.78;2.25;;;;;;;;;;5030175;28;20033;-80
2023/01/07 01:47:34;;;;;;;4.20;2.25;;;;;;;;;;5028426;28;20021;-80
2023/01/07 01:50:21;;;;;;;2.97;2.53;;;;;;;;;;5032847;28;20052;-80
2023/01/07 01:53:08;;;;;;;3.92;2.83;;;;;;;;;;5032427;28;20028;-80
2023/01/07 01:55:37;;;;;;;5.95;3.13;;;;;;;;;;5032214;28;20052;-79
2023/01/07 01:58:06;;;;;;;4.93;2.75;;;;;;;;;;5033639;28;20033;-81
2023/01/07 02:00:34;;;;;;;8.73;3.03;;;;;;;;;;5033864;28;20027;-80
2023/01/07 02:03:00;;;;;;;3.65;2.03;;;;;;;;;;5033588;28;20036;-79
2023/01/07 02:05:34;;;;;;;12.82;3.33;;;;;;;;;;5034430;28;20025;-79
2023/01/07 02:07:59;;;;;;;4.78;2.83;;;;;;;;;;5034860;28;20043;-79
2023/01/07 02:10:25;;;;;;;4.97;2.53;;;;;;;;;;5033029;28;20033;-79
2023/01/07 02:13:00;;;;;;;3.97;2.40;;;;;;;;;;5032774;28;20423;-80
2023/01/07 02:15:41;;;;;;;2.83;2.20;;;;;;;;;;5037111;28;20492;-79
2023/01/07 02:18:24;;;;;;;3.65;2.00;;;;;;;;;;5042990;28;20036;-80
2023/01/07 02:21:05;;;;;;;5.63;2.20;;;;;;;;;;5038225;28;20120;-80
2023/01/07 02:23:43;;;;;;;2.35;2.10;;;;;;;;;;5034571;28;20021;-80
2023/01/07 02:26:22;;;;;;;3.47;2.37;;;;;;;;;;5034527;28;20029;-81
2023/01/07 02:28:59;;;;;;;2.55;2.00;;;;;;;;;;5034988;28;20033;-80
2023/01/07 02:31:45;;;;;;;4.38;2.35;;;;;;;;;;5032936;28;20026;-81
2023/01/07 02:34:35;;;;;;;2.90;2.47;;;;;;;;;;5033864;28;20136;-80
2023/01/07 02:37:04;;;;;;;3.08;2.33;;;;;;;;;;5030660;28;20036;-80
2023/01/07 02:39:35;;;;;;;3.00;2.15;;;;;;;;;;5014229;28;20030;-81
2023/01/07 02:42:42;;;;;;;4.97;2.17;;;;;;;;;;5013298;28;20053;-81
2023/01/07 02:45:30;;;;;;;4.65;2.22;;;;;;;;;;5000143;28;20041;-81
2023/01/07 02:48:01;;;;;;;3.72;2.10;;;;;;;;;;5011140;28;20022;-80
2023/01/07 02:50:26;;;;;;;6.25;2.65;;;;;;;;;;5012515;28;20034;-79
2023/01/07 02:52:52;;;;;;;4.68;2.17;;;;;;;;;;5012218;28;20041;-80
2023/01/07 02:55:34;;;;;;;2.28;1.80;;;;;;;;;;5011373;28;20422;-80
2023/01/07 02:58:30;;;;;;;2.58;2.15;;;;;;;;;;5012084;28;20057;-80
2023/01/07 03:01:13;;;;;;;1.70;1.60;;;;;;;;;;5010247;28;20119;-80
2023/01/07 03:03:51;;;;;;;5.22;2.22;;;;;;;;;;5010609;28;20034;-81
2023/01/07 03:06:22;;;;;;;6.80;1.92;;;;;;;;;;5011867;28;20076;-80
2023/01/07 03:08:57;;;;;;;2.00;1.35;;;;;;;;;;5012064;28;20327;-81
2023/01/07 03:11:26;;;;;;;4.45;1.85;;;;;;;;;;5010284;28;20041;-80
2023/01/07 03:14:16;;;;;;;2.00;1.67;;;;;;;;;;5010108;28;20030;-79
2023/01/07 03:16:49;;;;;;;4.40;1.60;;;;;;;;;;5011661;28;20034;-80
2023/01/07 03:19:21;;;;;;;1.73;1.25;;;;;;;;;;5011789;28;20466;-80
2023/01/07 03:21:48;;;;;;;6.28;2.00;;;;;;;;;;5010138;28;20516;-80
2023/01/07 03:24:17;;;;;;;4.07;2.10;;;;;;;;;;5010291;28;20060;-80
2023/01/07 03:26:47;;;;;;;2.72;2.15;;;;;;;;;;5011457;28;20069;-79
2023/01/07 03:29:14;;;;;;;2.35;1.70;;;;;;;;;;5011965;28;20034;-79
2023/01/07 03:31:53;;;;;;;4.75;1.63;;;;;;;;;;5012064;28;20048;-78
2023/01/07 03:34:23;;;;;;;6.85;1.88;;;;;;;;;;5011708;28;20450;-78
2023/01/07 03:36:52;;;;;;;5.43;1.83;;;;;;;;;;5011372;28;20111;-78
2023/01/07 03:39:23;;;;;;;2.10;1.40;;;;;;;;;;5030626;28;20489;-78
2023/01/07 03:44:34;;;;;;;1.52;1.20;;;;;;;;;;5031844;28;20048;-77
2023/01/07 03:47:00;;;;;;;3.78;1.50;;;;;;;;;;5030154;28;20021;-78
2023/01/07 03:49:25;;;;;;;3.55;1.95;;;;;;;;;;5030429;28;20025;-79
2023/01/07 03:51:53;;;;;;;3.88;1.98;;;;;;;;;;5029997;28;20469;-78
2023/01/07 03:54:22;;;;;;;2.55;1.67;;;;;;;;;;5032495;28;20025;-77
2023/01/07 03:56:48;;;;;;;3.55;1.70;;;;;;;;;;5030716;28;20022;-79
2023/01/07 03:59:14;;;;;;;2.10;1.33;;;;;;;;;;5030447;28;20063;-79
2023/01/07 04:01:39;;;;;;;2.70;2.22;;;;;;;;;;5030018;28;20029;-78
2023/01/07 04:04:04;;;;;;;1.63;1.33;;;;;;;;;;5030853;28;20017;-78
2023/01/07 04:06:30;;;;;;;2.78;1.65;;;;;;;;;;5029435;28;20033;-79
2023/01/07 04:08:56;;;;;;;2.17;1.38;;;;;;;;;;5029456;28;20071;-79
2023/01/07 04:11:21;;;;;;;2.33;1.50;;;;;;;;;;5028739;28;20029;-78
2023/01/07 04:13:46;;;;;;;4.18;1.70;;;;;;;;;;5029488;28;20056;-77
2023/01/07 04:16:12;;;;;;;4.22;1.65;;;;;;;;;;5030734;28;20032;-77
2023/01/07 04:18:38;;;;;;;4.72;1.88;;;;;;;;;;5030695;28;20036;-78
2023/01/07 04:21:03;;;;;;;4.00;2.10;;;;;;;;;;5030645;28;20768;-78
2023/01/07 04:23:29;;;;;;;3.92;1.90;;;;;;;;;;5029491;28;20227;-80
2023/01/07 04:25:54;;;;;;;1.92;1.33;;;;;;;;;;5030925;28;20025;-77
2023/01/07 04:28:19;;;;;;;2.15;1.52;;;;;;;;;;5031133;28;20025;-79
2023/01/07 04:30:45;;;;;;;6.78;1.50;;;;;;;;;;5030851;28;20025;-78
2023/01/07 04:33:11;;;;;;;2.55;1.80;;;;;;;;;;5030819;28;20473;-79
2023/01/07 04:35:38;;;;;;;1.77;1.40;;;;;;;;;;5030242;28;20037;-78
2023/01/07 04:38:06;;;;;;;2.60;1.63;;;;;;;;;;5030561;28;20044;-79
2023/01/07 04:40:31;;;;;;;3.17;1.50;;;;;;;;;;5029102;28;20056;-77
2023/01/07 04:42:57;;;;;;;4.73;1.73;;;;;;;;;;5030151;28;20514;-79
2023/01/07 04:45:22;;;;;;;2.37;1.47;;;;;;;;;;5029382;28;20358;-78
2023/01/07 04:47:48;;;;;;;4.97;1.37;;;;;;;;;;5030265;28;20029;-78
2023/01/07 04:50:14;;;;;;;6.53;2.17;;;;;;;;;;5028482;28;20319;-78
2023/01/07 04:52:40;;;;;;;1.90;1.60;;;;;;;;;;5028952;28;20057;-78
2023/01/07 04:55:06;;;;;;;2.47;2.03;;;;;;;;;;5030105;28;20037;-78
2023/01/07 04:57:31;;;;;;;2.33;2.13;;;;;;;;;;5028693;28;20418;-78
2023/01/07 04:59:57;;;;;;;2.93;2.00;;;;;;;;;;5028769;28;20079;-79
2023/01/07 05:02:22;;;;;;;5.83;1.97;;;;;;;;;;5029901;28;20073;-78
2023/01/07 05:04:48;;;;;;;2.60;1.60;;;;;;;;;;5028385;28;20083;-79
2023/01/07 05:07:13;;;;;;;2.33;1.70;;;;;;;;;;5028385;28;20029;-79
2023/01/07 05:09:39;;;;;;;6.27;2.03;;;;;;;;;;5030656;28;20466;-81
2023/01/07 05:12:04;;;;;;;3.47;1.90;;;;;;;;;;5030934;28;20039;-81
2023/01/07 05:14:30;;;;;;;5.40;2.37;;;;;;;;;;5029634;28;20033;-79
2023/01/07 05:16:55;;;;;;;12.53;2.77;;;;;;;;;;5028679;28;20033;-80
2023/01/07 05:19:21;;;;;;;4.80;2.00;;;;;;;;;;5030343;28;20037;-79
2023/01/07 05:21:46;;;;;;;9.00;2.63;;;;;;;;;;5029074;28;20044;-80
2023/01/07 05:24:12;;;;;;;4.73;1.73;;;;;;;;;;5028568;28;20037;-79
2023/01/07 05:26:37;;;;;;;3.87;2.03;;;;;;;;;;5029007;28;20029;-80
2023/01/07 05:29:03;;;;;;;4.63;2.43;;;;;;;;;;5029038;28;20446;-79
2023/01/07 05:31:29;;;;;;;4.87;1.83;;;;;;;;;;5029216;28;20029;-79
2023/01/07 05:33:54;;;;;;;4.40;2.03;;;;;;;;;;5039220;28;20033;-80
2023/01/07 05:36:19;;;;;;;2.20;2.00;;;;;;;;;;5032732;28;20033;-80
2023/01/07 05:38:45;;;;;;;2.47;1.60;;;;;;;;;;5012601;28;20147;-80
2023/01/07 05:41:11;;;;;;;7.47;1.83;;;;;;;;;;5008348;28;20129;-80
2023/01/07 05:43:36;;;;;;;3.10;2.43;;;;;;;;;;5009127;28;20029;-80
2023/01/07 05:46:02;;;;;;;2.23;1.70;;;;;;;;;;5008896;28;20041;-80
2023/01/07 05:48:27;;;;;;;4.60;2.47;;;;;;;;;;5008689;28;20065;-80
2023/01/07 05:50:53;;;;;;;4.17;2.40;;;;;;;;;;5008633;28;20375;-81
2023/01/07 05:53:18;;;;;;;5.03;1.87;;;;;;;;;;5008617;28;20382;-80
2023/01/07 05:55:44;;;;;;;2.77;1.87;;;;;;;;;;5008626;28;20053;-80
2023/01/07 05:58:10;;;;;;;2.63;2.07;;;;;;;;;;4992532;28;20044;-81
2023/01/07 06:00:36;;;;;;;3.60;1.83;;;;;;;;;;5009891;28;20104;-80
2023/01/07 06:03:03;;;;;;;8.30;2.17;;;;;;;;;;5011299;28;20038;-79
2023/01/07 06:05:28;;;;;;;4.80;2.23;;;;;;;;;;5009971;28;20069;-80
2023/01/07 06:07:54;;;;;;;3.63;2.73;;;;;;;;;;5011493;28;20044;-80
2023/01/07 06:10:19;;;;;;;3.10;2.10;;;;;;;;;;5009584;28;20117;-80
2023/01/07 06:12:45;;;;;;;3.83;2.33;;;;;;;;;;5010184;28;20095;-80
2023/01/07 06:15:10;;;;;;;3.90;2.00;;;;;;;;;;5021003;28;20034;-80
2023/01/07 06:17:36;;;;;;;8.37;2.50;;;;;;;;;;5024112;28;20132;-80
2023/01/07 06:20:02;;;;;;;2.83;1.80;;;;;;;;;;5016273;28;20026;-80
2023/01/07 06:22:28;;;;;;;5.83;2.33;;;;;;;;;;5011482;28;20030;-80
2023/01/07 06:24:53;;;;;;;3.57;2.10;;;;;;;;;;5009291;28;20030;-80
2023/01/07 06:27:19;;;;;;;3.63;2.70;;;;;;;;;;5009378;28;20533;-81
2023/01/07 06:29:44;;;;;;;4.93;2.13;;;;;;;;;;5010564;28;20030;-81
2023/01/07 06:32:10;;;;;;;4.93;2.20;;;;;;;;;;5009944;28;20057;-79
2023/01/07 06:34:35;;;;;;;17.50;3.53;;;;;;;;;;5010163;28;20064;-80
2023/01/07 06:37:01;;;;;;;3.97;2.40;;;;;;;;;;5014344;28;20030;-81
2023/01/07 06:39:27;;;;;;;5.60;2.57;;;;;;;;;;5033938;28;20446;-81
2023/01/07 06:41:52;;;;;;;14.10;2.40;;;;;;;;;;5033772;28;20043;-81
2023/01/07 06:44:18;;;;;;;3.30;2.00;;;;;;;;;;5034171;28;20374;-80
2023/01/07 06:46:43;;;;;;;6.13;2.40;;;;;;;;;;5031962;28;20022;-81
2023/01/07 06:49:09;;;;;;;6.83;2.80;;;;;;;;;;5031648;28;20116;-79
2023/01/07 06:51:34;;;;;;;3.77;2.10;;;;;;;;;;5034077;28;20454;-80
2023/01/07 06:54:00;;;;;;;5.13;2.30;;;;;;;;;;5032324;28;20025;-81
2023/01/07 06:56:25;;;;;;;5.57;1.97;;;;;;;;;;5033326;28;20029;-80
2023/01/07 06:58:51;;;;;;;5.87;2.67;;;;;;;;;;5031854;28;20033;-81
2023/01/07 07:01:16;;;;;;;12.37;3.07;;;;;;;;;;5031577;28;20056;-80
2023/01/07 07:03:42;;;;;;;9.47;2.87;;;;;;;;;;5031532;28;20358;-80
2023/01/07 07:06:07;;;;;;;6.23;3.13;;;;;;;;;;5031396;28;20053;-80
2023/01/07 07:08:33;;;;;;;3.25;2.40;;;;;;;;;;5032680;28;20057;-80
2023/01/07 07:10:58;;;;;;;5.33;2.33;;;;;;;;;;5032186;28;20025;-81
2023/01/07 07:13:24;;;;;;;6.67;2.80;;;;;;;;;;5032542;28;20025;-81
2023/01/07 07:15:49;;;;;;;3.03;2.30;;;;;;;;;;5030764;28;20026;-81
2023/01/07 07:18:16;;;;;;;9.17;4.00;;;;;;;;;;5032208;28;20041;-81
2023/01/07 07:20:42;;;;;;;6.60;3.97;;;;;;;;;;5032639;28;20068;-80
2023/01/07 07:23:07;;;;;;;11.13;5.75;;;;;;;;;;5030546;28;20022;-80
2023/01/07 07:25:33;;;;;;;9.15;4.00;;;;;;;;;;5030736;28;20033;-80
2023/01/07 07:27:59;;;;;;;12.18;3.75;;;;;;;;;;5032341;28;20504;-80
2023/01/07 07:30:24;;;;;;;9.73;3.80;;;;;;;;;;5030498;28;20488;-80
2023/01/07 07:32:50;;;;;;;9.10;3.10;;;;;;;;;;5033018;28;20022;-82
2023/01/07 07:35:15;;;;;;;4.43;2.58;;;;;;;;;;5030894;28;20025;-82
2023/01/07 07:37:41;;;;;;;18.90;3.50;;;;;;;;;;5025099;28;20033;-80
2023/01/07 07:40:08;;;;;;;3.60;2.25;;;;;;;;;;5012118;28;20045;-80
2023/01/07 07:42:34;;;;;;;8.90;3.70;;;;;;;;;;5010460;28;20045;-80
2023/01/07 07:44:59;;;;;;;5.32;3.50;;;;;;;;;;5010261;28;20080;-80
2023/01/07 07:47:25;;;;;;;8.50;2.75;;;;;;;;;;5009392;28;20607;-81
2023/01/07 07:49:50;;;;;;;9.05;2.78;;;;;;;;;;5010574;28;20477;-81
2023/01/07 07:52:17;;;;;;;9.55;2.95;;;;;;;;;;5010817;28;20108;-81
2023/01/07 07:54:42;;;;;;;7.13;3.72;;;;;;;;;;5012788;28;20042;-80
2023/01/07 07:57:08;;;;;;;7.10;3.50;;;;;;;;;;5010855;28;20084;-80
2023/01/07 07:59:33;;;;;;;5.65;3.15;;;;;;;;;;5010867;28;20418;-79
2023/01/07 08:01:59;;;;;;;4.35;2.65;;;;;;;;;;5010911;28;20026;-81
2023/01/07 08:04:27;;;;;;;4.90;2.38;;;;;;;;;;5010521;28;20125;-82
2023/01/07 08:06:54;;;;;;;4.50;2.75;;;;;;;;;;5010814;28;20029;-80
2023/01/07 08:09:20;;;;;;;7.55;2.60;;;;;;;;;;5010708;28;20029;-80
2023/01/07 08:11:45;;;;;;;13.68;3.50;;;;;;;;;;5010763;28;20025;-80
2023/01/07 08:14:11;;;;;;;13.07;3.35;;;;;;;;;;5010114;28;20109;-81
2023/01/07 08:16:36;;;;;;;6.15;2.50;;;;;;;;;;5011574;28;20040;-81
2023/01/07 08:19:02;;;;;;;6.07;3.15;;;;;;;;;;5010190;28;20025;-81
2023/01/07 08:21:28;;;;;;;6.00;3.45;;;;;;;;;;5009983;28;20021;-80
2023/01/07 08:23:53;;;;;;;8.02;2.63;;;;;;;;;;5009778;28;20032;-80
2023/01/07 08:26:19;;;;;;;5.25;2.25;;;;;;;;;;5009633;28;20042;-80
2023/01/07 08:28:44;;;;;;;5.72;2.53;;;;;;;;;;5010148;28;20144;-81
2023/01/07 08:31:10;;;;;;;8.10;2.67;;;;;;;;;;5010424;28;20053;-81
2023/01/07 08:33:37;;;;;;;6.90;2.53;;;;;;;;;;5010542;28;20061;-81
2023/01/07 08:36:05;;;;;;;9.02;3.05;;;;;;;;;;5010484;28;20435;-80
2023/01/07 08:38:31;;;;;;;10.32;3.40;;;;;;;;;;5010269;28;20029;-80
2023/01/07 08:40:58;;;;;;;7.82;3.50;;;;;;;;;;5009837;28;20053;-80
2023/01/07 08:43:23;;;;;;;9.63;3.78;;;;;;;;;;5009809;28;20030;-82
2023/01/07 08:45:50;;;;;;;5.55;3.83;;;;;;;;;;5011295;28;20021;-80
2023/01/07 08:48:16;;;;;;;7.18;3.70;;;;;;;;;;5009285;28;20076;-80
2023/01/07 08:50:41;;;;;;;8.75;3.92;;;;;;;;;;5009572;28;20026;-81
2023/01/07 08:53:07;;;;;;;4.82;2.60;;;;;;;;;;5009872;28;20030;-81
2023/01/07 08:55:32;;;;;;;5.47;3.03;;;;;;;;;;5011108;28;20026;-81
2023/01/07 08:57:58;;;;;;;6.03;3.08;;;;;;;;;;5010529;28;20037;-81
2023/01/07 09:00:24;;;;;;;5.68;2.70;;;;;;;;;;5009493;28;20140;-81
2023/01/07 09:02:50;;;;;;;5.18;3.30;;;;;;;;;;5011081;28;20034;-81
2023/01/07 09:05:15;;;;;;;7.80;3.97;;;;;;;;;;4993088;28;20038;-80
2023/01/07 09:07:41;;;;;;;5.78;3.13;;;;;;;;;;5009710;28;20030;-80
2023/01/07 09:10:08;;;;;;;3.88;2.75;;;;;;;;;;5010267;28;20037;-80
2023/01/07 09:12:33;;;;;;;6.30;2.75;;;;;;;;;;5010533;28;20033;-81
2023/01/07 09:14:59;;;;;;;6.38;2.95;;;;;;;;;;5009421;28;20065;-80
2023/01/07 09:17:24;;;;;;;4.68;2.70;;;;;;;;;;5010208;28;20084;-81
2023/01/07 09:19:50;;;;;;;5.13;3.33;;;;;;;;;;5008943;28;20030;-80
2023/01/07 09:22:15;;;;;;;5.55;3.00;;;;;;;;;;5009003;28;20463;-80
2023/01/07 09:24:41;;;;;;;7.90;3.17;;;;;;;;;;5009392;28;20044;-80
2023/01/07 09:27:06;;;;;;;8.80;3.17;;;;;;;;;;5009115;28;20111;-79
2023/01/07 09:29:32;;;;;;;8.48;3.33;;;;;;;;;;5010837;28;20040;-80
2023/01/07 09:31:58;;;;;;;3.45;2.00;;;;;;;;;;5012403;28;20030;-81
2023/01/07 09:34:24;;;;;;;6.10;3.30;;;;;;;;;;5009575;28;20067;-80
2023/01/07 09:36:50;;;;;;;11.30;3.88;;;;;;;;;;5015093;28;20084;-81
2023/01/07 09:39:15;;;;;;;3.72;2.47;;;;;;;;;;5010132;28;20076;-81
2023/01/07 09:41:44;;;;;;;5.30;2.45;;;;;;;;;;5009573;28;20560;-80
2023/01/07 09:44:43;;;;;;;5.72;3.72;;;;;;;;;;5008743;28;20040;-79
2023/01/07 09:47:12;;;;;;;4.80;2.60;;;;;;;;;;5013426;28;20030;-80
2023/01/07 09:49:40;;;;;;;15.48;3.65;;;;;;;;;;5009820;28;20180;-79
2023/01/07 09:52:15;;;;;;;6.60;2.90;;;;;;;;;;5008853;28;20033;-82
2023/01/07 09:54:44;;;;;;;6.28;3.30;;;;;;;;;;5010191;28;20030;-79
2023/01/07 09:57:16;;;;;;;6.63;3.63;;;;;;;;;;5010579;28;20068;-80
2023/01/07 09:59:42;;;;;;;6.45;3.97;;;;;;;;;;5010028;28;20026;-79
2023/01/07 10:02:10;;;;;;;8.88;3.55;;;;;;;;;;5011169;28;20025;-80
2023/01/07 10:04:39;;;;;;;15.10;5.65;;;;;;;;;;5010878;28;20157;-81
2023/01/07 10:07:18;;;;;;;9.80;5.45;;;;;;;;;;5015277;28;20039;-79
2023/01/07 10:09:58;;;;;;;5.35;3.95;;;;;;;;;;5017416;28;20169;-80
2023/01/07 10:12:42;;;;;;;11.95;4.38;;;;;;;;;;5014243;28;20030;-80
2023/01/07 10:15:32;;;;;;;20.58;4.88;;;;;;;;;;5015537;28;20037;-81
2023/01/07 10:18:07;;;;;;;8.55;4.50;;;;;;;;;;5015287;28;20026;-80
2023/01/07 10:20:55;;;;;;;9.63;6.07;;;;;;;;;;5013954;28;20032;-81
2023/01/07 10:23:27;;;;;;;11.38;4.35;;;;;;;;;;5013847;28;20030;-80
2023/01/07 10:25:56;;;;;;;7.00;4.05;;;;;;;;;;5015351;28;20136;-79
2023/01/07 10:28:33;;;;;;;12.98;5.40;;;;;;;;;;4996930;28;20038;-80
2023/01/07 10:31:02;;;;;;;19.15;5.95;;;;;;;;;;5013396;28;20046;-80
2023/01/07 10:33:30;;;;;;;9.45;4.60;;;;;;;;;;5012990;28;20429;-81
2023/01/07 10:36:24;;;;;;;8.75;5.03;;;;;;;;;;5012697;28;20137;-81
2023/01/07 10:39:14;;;;;;;13.65;5.18;;;;;;;;;;5012151;28;20482;-80
2023/01/07 10:41:58;;;;;;;9.45;4.07;;;;;;;;;;5012184;28;20525;-80
2023/01/07 10:44:57;;;;;;;31.23;15.85;;;;;;;;;;5012020;28;20042;-81
2023/01/07 10:47:41;;;;;;;10.27;4.28;;;;;;;;;;5012414;28;20038;-81
2023/01/07 10:50:19;;;;;;;14.50;5.10;;;;;;;;;;5014011;28;20037;-81
2023/01/07 10:53:23;;;;;;;11.57;6.05;;;;;;;;;;5013808;28;20037;-80
2023/01/07 10:56:21;;;;;;;7.60;4.35;;;;;;;;;;5007591;28;20529;-79
2023/01/07 10:58:48;;;;;;;12.60;5.07;;;;;;;;;;5033362;28;20094;-82
2023/01/07 11:01:23;;;;;;;12.25;4.25;;;;;;;;;;5031859;28;20029;-80
2023/01/07 11:03:52;;;;;;;11.88;4.90;;;;;;;;;;5032710;28;20022;-79
2023/01/07 11:06:25;;;;;;;7.85;4.35;;;;;;;;;;5014899;28;20034;-79
2023/01/07 11:08:52;;;;;;;11.60;5.03;;;;;;;;;;5031288;28;20032;-81
2023/01/07 11:11:22;;;;;;;15.70;5.05;;;;;;;;;;5031292;28;20064;-81
2023/01/07 11:14:00;;;;;;;14.10;4.55;;;;;;;;;;5031594;28;20034;-80
2023/01/07 11:16:37;;;;;;;9.30;4.53;;;;;;;;;;5031367;28;20029;-80
2023/01/07 11:19:06;;;;;;;10.93;4.03;;;;;;;;;;5031266;28;20029;-80
2023/01/07 11:21:42;;;;;;;10.15;3.80;;;;;;;;;;5031246;28;20027;-80
2023/01/07 11:24:23;;;;;;;4.55;2.67;;;;;;;;;;5031331;28;20037;-79
2023/01/07 11:26:49;;;;;;;8.75;3.40;;;;;;;;;;5031165;28;20120;-80
2023/01/07 11:29:21;;;;;;;11.77;3.17;;;;;;;;;;5032260;28;20092;-79
2023/01/07 11:31:59;;;;;;;7.78;3.20;;;;;;;;;;5034688;28;20034;-80
2023/01/07 11:34:31;;;;;;;6.00;2.65;;;;;;;;;;5031227;28;20029;-79
2023/01/07 11:36:57;;;;;;;5.35;3.00;;;;;;;;;;5033701;28;20021;-83
2023/01/07 11:39:28;;;;;;;4.93;2.30;;;;;;;;;;5033314;28;20413;-80
2023/01/07 11:41:57;;;;;;;8.65;2.58;;;;;;;;;;5031349;28;20041;-81
2023/01/07 11:44:24;;;;;;;2.13;1.50;;;;;;;;;;5031621;28;20055;-80
2023/01/07 11:46:50;;;;;;;4.93;1.80;;;;;;;;;;5032360;28;20021;-80
2023/01/07 11:49:27;;;;;;;4.13;1.98;;;;;;;;;;5030675;28;20504;-79
2023/01/07 11:51:53;;;;;;;3.92;2.05;;;;;;;;;;5032291;28;20036;-79
2023/01/07 11:54:23;;;;;;;14.90;13.38;;;;;;;;;;5015108;28;20037;-80
2023/01/07 11:56:52;;;;;;;7.93;4.43;;;;;;;;;;5030783;28;20045;-80
2023/01/07 11:59:29;;;;;;;6.80;1.83;;;;;;;;;;5030780;28;20040;-81
2023/01/07 12:01:58;;;;;;;6.55;2.58;;;;;;;;;;5032247;28;20357;-80
2023/01/07 12:04:31;;;;;;;5.82;3.47;;;;;;;;;;5031029;28;20124;-79
2023/01/07 12:07:05;;;;;;;5.05;2.15;;;;;;;;;;5031690;28;20195;-79
2023/01/07 12:09:31;;;;;;;12.88;4.57;;;;;;;;;;5032866;28;20032;-82
2023/01/07 12:12:38;;;;;;;2.40;2.10;;;;;;;;;;5032101;28;20041;-78
2023/01/07 12:15:15;;;;;;;4.70;1.90;;;;;;;;;;5030090;28;20025;-79
2023/01/07 12:17:45;;;;;;;8.00;3.35;;;;;;;;;;5030886;28;20123;-79
2023/01/07 12:20:38;;;;;;;4.95;2.30;;;;;;;;;;5031768;28;20032;-80
2023/01/07 12:23:29;;;;;;;6.57;2.17;;;;;;;;;;5031883;28;20026;-82
2023/01/07 12:26:06;;;;;;;2.10;1.10;;;;;;;;;;5030711;28;20436;-80
2023/01/07 12:29:20;;;;;;;3.70;0.95;;;;;;;;;;5031885;28;20025;-81
2023/01/07 12:32:04;;;;;;;1.83;1.00;;;;;;;;;;4993970;28;20487;-79
2023/01/07 12:34:41;;;;;;;3.00;1.17;;;;;;;;;;5029862;28;20438;-80
2023/01/07 12:37:19;;;;;;;4.63;1.33;;;;;;;;;;5027942;28;20136;-80
2023/01/07 12:39:45;;;;;;;6.63;1.17;;;;;;;;;;5010400;28;20116;-79
2023/01/07 12:42:24;;;;;;;2.85;2.03;;;;;;;;;;5012469;28;20573;-80
2023/01/07 12:44:55;;;;;;;1.73;1.10;;;;;;;;;;5011753;28;20026;-80
2023/01/07 12:47:25;;;;;;;5.18;2.03;;;;;;;;;;5009983;28;20065;-80
2023/01/07 12:49:56;;;;;;;2.47;1.60;;;;;;;;;;5009739;28;20034;-79
2023/01/07 12:53:15;;;;;;;4.78;1.67;;;;;;;;;;5011119;28;20029;-82
2023/01/07 12:55:47;;;;;;;2.53;1.10;;;;;;;;;;4987628;28;20133;-80
2023/01/07 12:58:43;;;;;;;1.35;0.90;;;;;;;;;;4993949;28;20053;-79
2023/01/07 13:01:28;;;;;;;1.25;1.00;;;;;;;;;;5008150;28;20446;-81
2023/01/07 13:04:34;;;;;;;1.40;1.17;;;;;;;;;;5009763;28;20038;-82
2023/01/07 13:07:18;;;;;;;1.15;1.05;;;;;;;;;;4990227;28;20044;-80
2023/01/07 13:10:01;;;;;;;3.13;1.40;;;;;;;;;;5009270;28;20135;-80
2023/01/07 13:12:42;;;;;;;6.90;1.63;;;;;;;;;;5009601;28;20068;-80
2023/01/07 13:15:19;;;;;;;0.82;0.60;;;;;;;;;;5009288;28;20034;-80
2023/01/07 13:17:48;;;;;;;7.20;1.60;;;;;;;;;;5009110;28;20063;-81
2023/01/07 13:20:16;;;;;;;1.88;1.13;;;;;;;;;;5009410;28;20037;-80
2023/01/07 13:22:55;;;;;;;2.53;1.20;;;;;;;;;;5009510;28;20022;-81
2023/01/07 13:26:14;;;;;;;2.28;1.98;;;;;;;;;;5009652;28;20037;-79
2023/01/07 13:29:04;;;;;;;3.97;1.40;;;;;;;;;;4969436;28;20105;-80
2023/01/07 13:31:57;;;;;;;4.20;1.65;;;;;;;;;;5011203;28;20048;-81
2023/01/07 13:34:32;;;;;;;2.58;1.35;;;;;;;;;;5008881;28;20544;-80
2023/01/07 13:37:23;;;;;;;1.98;1.40;;;;;;;;;;5009240;28;20026;-81
2023/01/07 13:40:03;;;;;;;3.85;2.05;;;;;;;;;;5008977;28;20026;-82
2023/01/07 13:42:31;;;;;;;5.35;2.08;;;;;;;;;;5009045;28;20042;-79
2023/01/07 13:45:11;;;;;;;6.47;2.30;;;;;;;;;;5014619;28;20044;-79
2023/01/07 13:48:16;;;;;;;2.95;1.60;;;;;;;;;;5013195;28;20103;-79
2023/01/07 13:50:54;;;;;;;2.17;1.52;;;;;;;;;;4993990;28;20037;-80
2023/01/07 13:53:22;;;;;;;2.00;1.50;;;;;;;;;;5014262;28;20022;-81
2023/01/07 13:55:47;;;;;;;8.25;3.00;;;;;;;;;;5024186;28;20029;-80
2023/01/07 13:58:42;;;;;;;3.05;1.80;;;;;;;;;;5025262;28;20030;-80
2023/01/07 14:01:12;;;;;;;3.65;1.83;;;;;;;;;;5013658;28;20034;-79
2023/01/07 14:03:52;;;;;;;2.58;1.70;;;;;;;;;;5013170;28;20331;-80
2023/01/07 14:06:18;;;;;;;3.47;2.08;;;;;;;;;;5015143;28;20342;-80
2023/01/07 14:09:12;;;;;;;3.63;1.38;;;;;;;;;;5012746;28;20029;-80
2023/01/07 14:12:11;;;;;;;5.50;1.40;;;;;;;;;;5012484;28;20029;-81
2023/01/07 14:15:19;;;;;;;2.25;1.40;;;;;;;;;;5013951;28;20026;-80
2023/01/07 14:17:54;;;;;;;3.33;2.03;;;;;;;;;;5012642;28;20029;-80
2023/01/07 14:20:31;;;;;;;3.10;1.80;;;;;;;;;;5012755;28;20620;-80
2023/01/07 14:23:02;;;;;;;2.17;1.58;;;;;;;;;;5012575;28;20057;-80
2023/01/07 14:25:53;;;;;;;2.15;1.67;;;;;;;;;;5012601;28;20084;-80
2023/01/07 14:28:53;;;;;;;3.47;2.05;;;;;;;;;;5014048;28;20018;-79
2023/01/07 14:31:25;;;;;;;9.10;3.35;;;;;;;;;;5009806;28;20033;-81
2023/01/07 14:33:53;;;;;;;;;;;;;;;;;;5013551;28;20084;-79
2023/01/07 14:36:18;;;;;;;4.85;2.42;;;;;;;;;;5014326;28;19917;-81
2023/01/07 14:38:46;;;;;;;5.00;2.20;;;;;;;;;;5028560;28;20025;-80
2023/01/07 14:41:16;;;;;;;5.93;2.67;;;;;;;;;;5032059;28;20046;-79
2023/01/07 14:43:44;;;;;;;2.80;2.45;;;;;;;;;;5032129;28;20036;-80
2023/01/07 14:46:22;;;;;;;9.43;2.20;;;;;;;;;;5032279;28;20453;-80
2023/01/07 14:49:03;;;;;;;8.07;2.25;;;;;;;;;;5032376;28;20033;-80
2023/01/07 14:51:43;;;;;;;5.97;2.50;;;;;;;;;;5031991;28;20033;-80
2023/01/07 14:54:27;;;;;;;6.40;2.58;;;;;;;;;;5036342;28;20040;-81
2023/01/07 14:57:04;;;;;;;2.85;2.17;;;;;;;;;;5031818;28;20030;-79
2023/01/07 15:00:13;;;;;;;6.90;2.38;;;;;;;;;;5032236;28;20026;-77
2023/01/07 15:03:14;;;;;;;3.70;2.28;;;;;;;;;;4991869;28;20030;-78
2023/01/07 15:06:18;;;;;;;6.05;2.70;;;;;;;;;;5033733;28;20026;-78
2023/01/07 15:17:31;;;;;;;4.70;2.40;;;;;;;;;;5032755;28;20036;-78
2023/01/07 15:19:58;;;;;;;6.15;2.63;;;;;;;;;;5030553;28;20120;-78
2023/01/07 15:22:33;;;;;;;3.67;2.58;;;;;;;;;;5030861;28;20640;-79